sensor_id;sensor_type;location;lat;lon;timestamp;P1;durP1;ratioP1;P2;durP2;ratioP2
20731;SDS011;10527;52.124;5.196;2023-10-31T00:01:20;2.70;;;1.25;;
20731;SDS011;10527;52.124;5.196;2023-10-31T00:03:47;3.80;;;1.80;;
20731;SDS011;10527;52.124;5.196;2023-10-31T00:06:15;3.10;;;1.50;;
20731;SDS011;10527;52.124;5.196;2023-10-31T00:08:42;3.88;;;1.90;;
20731;SDS011;10527;52.124;5.196;2023-10-31T00:11:10;3.90;;;2.22;;
20731;SDS011;10527;52.124;5.196;2023-10-31T00:13:38;5.15;;;2.65;;
20731;SDS011;10527;52.124;5.196;2023-10-31T00:16:05;10.45;;;4.20;;
20731;SDS011;10527;52.124;5.196;2023-10-31T00:18:33;3.97;;;3.08;;
20731;SDS011;10527;52.124;5.196;2023-10-31T00:21:00;6.22;;;3.55;;
20731;SDS011;10527;52.124;5.196;2023-10-31T00:23:28;5.38;;;3.72;;
20731;SDS011;10527;52.124;5.196;2023-10-31T00:25:56;6.13;;;4.68;;
20731;SDS011;10527;52.124;5.196;2023-10-31T00:28:23;7.30;;;4.55;;
20731;SDS011;10527;52.124;5.196;2023-10-31T00:30:50;7.43;;;5.10;;
20731;SDS011;10527;52.124;5.196;2023-10-31T00:33:18;7.30;;;4.90;;
20731;SDS011;10527;52.124;5.196;2023-10-31T00:35:45;7.03;;;5.28;;
20731;SDS011;10527;52.124;5.196;2023-10-31T00:38:13;9.75;;;5.57;;
20731;SDS011;10527;52.124;5.196;2023-10-31T00:40:40;6.22;;;5.07;;
20731;SDS011;10527;52.124;5.196;2023-10-31T00:43:08;8.93;;;5.90;;
20731;SDS011;10527;52.124;5.196;2023-10-31T00:45:35;8.52;;;6.45;;
20731;SDS011;10527;52.124;5.196;2023-10-31T00:48:02;8.82;;;5.40;;
20731;SDS011;10527;52.124;5.196;2023-10-31T00:50:30;7.57;;;4.75;;
20731;SDS011;10527;52.124;5.196;2023-10-31T00:52:57;5.97;;;4.70;;
20731;SDS011;10527;52.124;5.196;2023-10-31T00:55:25;11.18;;;5.43;;
20731;SDS011;10527;52.124;5.196;2023-10-31T00:57:52;8.20;;;4.78;;
20731;SDS011;10527;52.124;5.196;2023-10-31T01:00:19;6.40;;;4.82;;
20731;SDS011;10527;52.124;5.196;2023-10-31T01:02:47;6.30;;;4.68;;
20731;SDS011;10527;52.124;5.196;2023-10-31T01:05:14;7.25;;;3.97;;
20731;SDS011;10527;52.124;5.196;2023-10-31T01:07:42;5.75;;;3.85;;
20731;SDS011;10527;52.124;5.196;2023-10-31T01:10:09;7.95;;;5.03;;
20731;SDS011;10527;52.124;5.196;2023-10-31T01:12:37;6.05;;;4.32;;
20731;SDS011;10527;52.124;5.196;2023-10-31T01:15:04;5.10;;;3.65;;
20731;SDS011;10527;52.124;5.196;2023-10-31T01:17:33;8.27;;;3.80;;
20731;SDS011;10527;52.124;5.196;2023-10-31T01:20:00;5.85;;;3.55;;
20731;SDS011;10527;52.124;5.196;2023-10-31T01:22:28;7.22;;;3.88;;
20731;SDS011;10527;52.124;5.196;2023-10-31T01:24:55;8.35;;;3.42;;
20731;SDS011;10527;52.124;5.196;2023-10-31T01:27:23;6.43;;;2.88;;
20731;SDS011;10527;52.124;5.196;2023-10-31T01:29:51;5.53;;;3.17;;
20731;SDS011;10527;52.124;5.196;2023-10-31T01:32:18;6.47;;;3.55;;
20731;SDS011;10527;52.124;5.196;2023-10-31T01:34:48;5.72;;;3.47;;
20731;SDS011;10527;52.124;5.196;2023-10-31T01:37:15;5.40;;;3.03;;
20731;SDS011;10527;52.124;5.196;2023-10-31T01:39:45;6.45;;;3.50;;
20731;SDS011;10527;52.124;5.196;2023-10-31T01:42:13;10.75;;;4.55;;
20731;SDS011;10527;52.124;5.196;2023-10-31T01:44:41;6.65;;;4.28;;
20731;SDS011;10527;52.124;5.196;2023-10-31T01:47:09;6.03;;;4.60;;
20731;SDS011;10527;52.124;5.196;2023-10-31T01:49:37;6.68;;;4.28;;
20731;SDS011;10527;52.124;5.196;2023-10-31T01:52:05;6.65;;;4.40;;
20731;SDS011;10527;52.124;5.196;2023-10-31T01:54:33;7.88;;;5.15;;
20731;SDS011;10527;52.124;5.196;2023-10-31T01:57:03;6.00;;;5.25;;
20731;SDS011;10527;52.124;5.196;2023-10-31T01:59:31;11.55;;;5.15;;
20731;SDS011;10527;52.124;5.196;2023-10-31T02:01:59;8.48;;;4.97;;
20731;SDS011;10527;52.124;5.196;2023-10-31T02:04:28;9.07;;;5.88;;
20731;SDS011;10527;52.124;5.196;2023-10-31T02:06:55;7.88;;;6.05;;
20731;SDS011;10527;52.124;5.196;2023-10-31T02:09:23;8.80;;;6.10;;
20731;SDS011;10527;52.124;5.196;2023-10-31T02:11:52;6.78;;;5.40;;
20731;SDS011;10527;52.124;5.196;2023-10-31T02:14:21;7.65;;;5.53;;
20731;SDS011;10527;52.124;5.196;2023-10-31T02:16:50;6.13;;;5.53;;
20731;SDS011;10527;52.124;5.196;2023-10-31T02:19:21;8.75;;;5.80;;
20731;SDS011;10527;52.124;5.196;2023-10-31T02:21:48;7.97;;;4.97;;
20731;SDS011;10527;52.124;5.196;2023-10-31T02:24:16;7.20;;;4.78;;
20731;SDS011;10527;52.124;5.196;2023-10-31T02:26:43;7.85;;;5.55;;
20731;SDS011;10527;52.124;5.196;2023-10-31T02:29:10;8.13;;;4.65;;
20731;SDS011;10527;52.124;5.196;2023-10-31T02:31:38;4.93;;;3.92;;
20731;SDS011;10527;52.124;5.196;2023-10-31T02:34:06;5.20;;;3.88;;
20731;SDS011;10527;52.124;5.196;2023-10-31T02:36:33;7.15;;;3.97;;
20731;SDS011;10527;52.124;5.196;2023-10-31T02:39:01;6.07;;;4.18;;
20731;SDS011;10527;52.124;5.196;2023-10-31T02:41:28;7.32;;;4.68;;
20731;SDS011;10527;52.124;5.196;2023-10-31T02:43:55;6.75;;;3.95;;
20731;SDS011;10527;52.124;5.196;2023-10-31T02:46:24;6.70;;;3.78;;
20731;SDS011;10527;52.124;5.196;2023-10-31T02:48:51;9.20;;;4.18;;
20731;SDS011;10527;52.124;5.196;2023-10-31T02:51:19;5.95;;;4.03;;
20731;SDS011;10527;52.124;5.196;2023-10-31T02:53:46;4.88;;;3.50;;
20731;SDS011;10527;52.124;5.196;2023-10-31T02:56:13;7.75;;;3.95;;
20731;SDS011;10527;52.124;5.196;2023-10-31T02:58:41;6.32;;;3.53;;
20731;SDS011;10527;52.124;5.196;2023-10-31T03:01:08;5.88;;;3.38;;
20731;SDS011;10527;52.124;5.196;2023-10-31T03:03:36;6.15;;;3.88;;
20731;SDS011;10527;52.124;5.196;2023-10-31T03:06:04;4.30;;;2.45;;
20731;SDS011;10527;52.124;5.196;2023-10-31T03:08:32;4.78;;;2.20;;
20731;SDS011;10527;52.124;5.196;2023-10-31T03:10:59;3.22;;;2.20;;
20731;SDS011;10527;52.124;5.196;2023-10-31T03:13:26;3.83;;;1.83;;
20731;SDS011;10527;52.124;5.196;2023-10-31T03:15:55;3.92;;;1.58;;
20731;SDS011;10527;52.124;5.196;2023-10-31T03:18:22;3.45;;;1.40;;
20731;SDS011;10527;52.124;5.196;2023-10-31T03:20:50;4.38;;;1.17;;
20731;SDS011;10527;52.124;5.196;2023-10-31T03:23:17;1.88;;;0.93;;
20731;SDS011;10527;52.124;5.196;2023-10-31T03:25:45;2.58;;;0.70;;
20731;SDS011;10527;52.124;5.196;2023-10-31T03:28:19;3.15;;;0.80;;
20731;SDS011;10527;52.124;5.196;2023-10-31T03:30:49;2.28;;;0.43;;
20731;SDS011;10527;52.124;5.196;2023-10-31T03:33:18;1.33;;;0.60;;
20731;SDS011;10527;52.124;5.196;2023-10-31T03:35:46;1.23;;;0.52;;
20731;SDS011;10527;52.124;5.196;2023-10-31T03:38:13;1.17;;;0.60;;
20731;SDS011;10527;52.124;5.196;2023-10-31T03:40:41;2.22;;;0.40;;
20731;SDS011;10527;52.124;5.196;2023-10-31T03:43:09;2.63;;;0.68;;
20731;SDS011;10527;52.124;5.196;2023-10-31T03:45:36;4.15;;;0.60;;
20731;SDS011;10527;52.124;5.196;2023-10-31T03:48:04;3.33;;;0.77;;
20731;SDS011;10527;52.124;5.196;2023-10-31T03:50:31;2.00;;;0.45;;
20731;SDS011;10527;52.124;5.196;2023-10-31T03:52:59;2.83;;;0.60;;
20731;SDS011;10527;52.124;5.196;2023-10-31T03:55:26;2.15;;;0.95;;
20731;SDS011;10527;52.124;5.196;2023-10-31T03:57:53;1.70;;;0.80;;
20731;SDS011;10527;52.124;5.196;2023-10-31T04:00:21;1.17;;;0.40;;
20731;SDS011;10527;52.124;5.196;2023-10-31T04:02:49;2.20;;;0.57;;
20731;SDS011;10527;52.124;5.196;2023-10-31T04:05:17;1.88;;;0.52;;
20731;SDS011;10527;52.124;5.196;2023-10-31T04:07:46;3.03;;;0.60;;
20731;SDS011;10527;52.124;5.196;2023-10-31T04:10:13;2.35;;;0.70;;
20731;SDS011;10527;52.124;5.196;2023-10-31T04:12:41;0.80;;;0.50;;
20731;SDS011;10527;52.124;5.196;2023-10-31T04:15:09;1.05;;;0.47;;
20731;SDS011;10527;52.124;5.196;2023-10-31T04:17:37;0.52;;;0.43;;
20731;SDS011;10527;52.124;5.196;2023-10-31T04:20:04;0.45;;;0.40;;
20731;SDS011;10527;52.124;5.196;2023-10-31T04:22:33;2.60;;;0.50;;
20731;SDS011;10527;52.124;5.196;2023-10-31T04:25:00;0.82;;;0.50;;
20731;SDS011;10527;52.124;5.196;2023-10-31T04:27:27;1.40;;;0.40;;
20731;SDS011;10527;52.124;5.196;2023-10-31T04:29:55;2.30;;;0.60;;
20731;SDS011;10527;52.124;5.196;2023-10-31T04:32:22;1.95;;;0.65;;
20731;SDS011;10527;52.124;5.196;2023-10-31T04:34:50;1.92;;;0.52;;
20731;SDS011;10527;52.124;5.196;2023-10-31T04:37:17;1.52;;;0.70;;
20731;SDS011;10527;52.124;5.196;2023-10-31T04:39:45;1.15;;;0.50;;
20731;SDS011;10527;52.124;5.196;2023-10-31T04:42:12;0.70;;;0.40;;
20731;SDS011;10527;52.124;5.196;2023-10-31T04:44:39;1.13;;;0.50;;
20731;SDS011;10527;52.124;5.196;2023-10-31T04:47:07;1.15;;;0.60;;
20731;SDS011;10527;52.124;5.196;2023-10-31T04:49:35;2.88;;;0.52;;
20731;SDS011;10527;52.124;5.196;2023-10-31T04:52:02;0.52;;;0.35;;
20731;SDS011;10527;52.124;5.196;2023-10-31T04:54:30;0.73;;;0.40;;
20731;SDS011;10527;52.124;5.196;2023-10-31T04:56:58;0.38;;;0.38;;
20731;SDS011;10527;52.124;5.196;2023-10-31T04:59:25;1.85;;;0.40;;
20731;SDS011;10527;52.124;5.196;2023-10-31T05:01:53;0.77;;;0.63;;
20731;SDS011;10527;52.124;5.196;2023-10-31T05:04:21;1.13;;;0.77;;
20731;SDS011;10527;52.124;5.196;2023-10-31T05:06:49;1.40;;;0.93;;
20731;SDS011;10527;52.124;5.196;2023-10-31T05:09:16;1.95;;;1.27;;
20731;SDS011;10527;52.124;5.196;2023-10-31T05:11:44;1.67;;;0.82;;
20731;SDS011;10527;52.124;5.196;2023-10-31T05:14:12;2.13;;;1.00;;
20731;SDS011;10527;52.124;5.196;2023-10-31T05:16:40;8.73;;;8.00;;
20731;SDS011;10527;52.124;5.196;2023-10-31T05:19:09;4.88;;;3.97;;
20731;SDS011;10527;52.124;5.196;2023-10-31T05:21:37;2.05;;;1.83;;
20731;SDS011;10527;52.124;5.196;2023-10-31T05:24:04;1.77;;;1.55;;
20731;SDS011;10527;52.124;5.196;2023-10-31T05:26:33;1.85;;;1.27;;
20731;SDS011;10527;52.124;5.196;2023-10-31T05:29:00;2.63;;;1.40;;
20731;SDS011;10527;52.124;5.196;2023-10-31T05:31:28;2.55;;;1.10;;
20731;SDS011;10527;52.124;5.196;2023-10-31T05:33:56;2.67;;;1.33;;
20731;SDS011;10527;52.124;5.196;2023-10-31T05:36:23;1.52;;;1.20;;
20731;SDS011;10527;52.124;5.196;2023-10-31T05:38:52;1.92;;;1.10;;
20731;SDS011;10527;52.124;5.196;2023-10-31T05:41:19;4.72;;;1.38;;
20731;SDS011;10527;52.124;5.196;2023-10-31T05:43:46;1.90;;;1.10;;
20731;SDS011;10527;52.124;5.196;2023-10-31T05:46:14;1.35;;;0.90;;
20731;SDS011;10527;52.124;5.196;2023-10-31T05:48:43;1.95;;;0.90;;
20731;SDS011;10527;52.124;5.196;2023-10-31T05:51:12;1.25;;;1.00;;
20731;SDS011;10527;52.124;5.196;2023-10-31T05:53:42;2.20;;;1.45;;
20731;SDS011;10527;52.124;5.196;2023-10-31T05:56:11;4.80;;;1.90;;
20731;SDS011;10527;52.124;5.196;2023-10-31T05:58:41;2.78;;;1.85;;
20731;SDS011;10527;52.124;5.196;2023-10-31T06:01:09;2.75;;;1.95;;
20731;SDS011;10527;52.124;5.196;2023-10-31T06:03:37;3.20;;;1.83;;
20731;SDS011;10527;52.124;5.196;2023-10-31T06:06:07;7.38;;;2.65;;
20731;SDS011;10527;52.124;5.196;2023-10-31T06:08:34;4.57;;;3.03;;
20731;SDS011;10527;52.124;5.196;2023-10-31T06:11:02;3.15;;;2.22;;
20731;SDS011;10527;52.124;5.196;2023-10-31T06:13:30;4.65;;;2.00;;
20731;SDS011;10527;52.124;5.196;2023-10-31T06:15:58;4.40;;;2.30;;
20731;SDS011;10527;52.124;5.196;2023-10-31T06:18:27;3.00;;;1.67;;
20731;SDS011;10527;52.124;5.196;2023-10-31T06:20:55;2.33;;;1.50;;
20731;SDS011;10527;52.124;5.196;2023-10-31T06:23:23;3.15;;;1.20;;
20731;SDS011;10527;52.124;5.196;2023-10-31T06:25:51;3.00;;;1.30;;
20731;SDS011;10527;52.124;5.196;2023-10-31T06:28:18;3.38;;;1.70;;
20731;SDS011;10527;52.124;5.196;2023-10-31T06:30:46;4.00;;;0.90;;
20731;SDS011;10527;52.124;5.196;2023-10-31T06:33:13;3.35;;;0.80;;
20731;SDS011;10527;52.124;5.196;2023-10-31T06:35:41;1.67;;;0.70;;
20731;SDS011;10527;52.124;5.196;2023-10-31T06:38:08;2.42;;;0.68;;
20731;SDS011;10527;52.124;5.196;2023-10-31T06:40:36;0.75;;;0.63;;
20731;SDS011;10527;52.124;5.196;2023-10-31T06:43:04;1.67;;;0.60;;
20731;SDS011;10527;52.124;5.196;2023-10-31T06:45:32;1.23;;;0.60;;
20731;SDS011;10527;52.124;5.196;2023-10-31T06:47:59;3.55;;;0.55;;
20731;SDS011;10527;52.124;5.196;2023-10-31T06:50:28;1.08;;;0.70;;
20731;SDS011;10527;52.124;5.196;2023-10-31T06:52:56;0.98;;;0.73;;
20731;SDS011;10527;52.124;5.196;2023-10-31T06:55:23;1.10;;;0.50;;
20731;SDS011;10527;52.124;5.196;2023-10-31T06:57:50;3.47;;;0.70;;
20731;SDS011;10527;52.124;5.196;2023-10-31T07:00:18;1.98;;;0.73;;
20731;SDS011;10527;52.124;5.196;2023-10-31T07:02:46;0.80;;;0.55;;
20731;SDS011;10527;52.124;5.196;2023-10-31T07:05:13;2.53;;;0.60;;
20731;SDS011;10527;52.124;5.196;2023-10-31T07:07:42;1.95;;;0.73;;
20731;SDS011;10527;52.124;5.196;2023-10-31T07:10:10;3.70;;;0.85;;
20731;SDS011;10527;52.124;5.196;2023-10-31T07:12:37;1.40;;;0.73;;
20731;SDS011;10527;52.124;5.196;2023-10-31T07:15:05;1.73;;;0.60;;
20731;SDS011;10527;52.124;5.196;2023-10-31T07:17:33;3.72;;;0.98;;
20731;SDS011;10527;52.124;5.196;2023-10-31T07:20:01;1.83;;;0.90;;
20731;SDS011;10527;52.124;5.196;2023-10-31T07:22:28;2.40;;;0.70;;
20731;SDS011;10527;52.124;5.196;2023-10-31T07:24:55;1.10;;;0.75;;
20731;SDS011;10527;52.124;5.196;2023-10-31T07:27:23;2.05;;;0.60;;
20731;SDS011;10527;52.124;5.196;2023-10-31T07:29:51;0.98;;;0.80;;
20731;SDS011;10527;52.124;5.196;2023-10-31T07:32:18;1.20;;;0.80;;
20731;SDS011;10527;52.124;5.196;2023-10-31T07:34:46;1.38;;;0.60;;
20731;SDS011;10527;52.124;5.196;2023-10-31T07:37:15;1.75;;;0.60;;
20731;SDS011;10527;52.124;5.196;2023-10-31T07:39:43;3.15;;;0.80;;
20731;SDS011;10527;52.124;5.196;2023-10-31T07:42:10;1.10;;;0.70;;
20731;SDS011;10527;52.124;5.196;2023-10-31T07:44:37;2.03;;;0.93;;
20731;SDS011;10527;52.124;5.196;2023-10-31T07:47:05;2.20;;;0.93;;
20731;SDS011;10527;52.124;5.196;2023-10-31T07:49:33;2.30;;;0.95;;
20731;SDS011;10527;52.124;5.196;2023-10-31T07:52:00;2.38;;;0.90;;
20731;SDS011;10527;52.124;5.196;2023-10-31T07:54:27;4.15;;;1.13;;
20731;SDS011;10527;52.124;5.196;2023-10-31T07:56:56;3.78;;;1.20;;
20731;SDS011;10527;52.124;5.196;2023-10-31T07:59:23;6.22;;;2.03;;
20731;SDS011;10527;52.124;5.196;2023-10-31T08:01:51;3.17;;;1.60;;
20731;SDS011;10527;52.124;5.196;2023-10-31T08:04:19;2.47;;;1.20;;
20731;SDS011;10527;52.124;5.196;2023-10-31T08:06:46;4.95;;;1.92;;
20731;SDS011;10527;52.124;5.196;2023-10-31T08:09:14;3.47;;;1.58;;
20731;SDS011;10527;52.124;5.196;2023-10-31T08:11:43;5.88;;;1.65;;
20731;SDS011;10527;52.124;5.196;2023-10-31T08:14:10;4.70;;;1.50;;
20731;SDS011;10527;52.124;5.196;2023-10-31T08:16:38;3.05;;;1.40;;
20731;SDS011;10527;52.124;5.196;2023-10-31T08:19:06;3.75;;;1.40;;
20731;SDS011;10527;52.124;5.196;2023-10-31T08:21:33;3.78;;;1.60;;
20731;SDS011;10527;52.124;5.196;2023-10-31T08:24:02;2.85;;;1.75;;
20731;SDS011;10527;52.124;5.196;2023-10-31T08:26:30;2.72;;;1.63;;
20731;SDS011;10527;52.124;5.196;2023-10-31T08:29:00;1.90;;;1.40;;
20731;SDS011;10527;52.124;5.196;2023-10-31T08:31:28;4.57;;;1.58;;
20731;SDS011;10527;52.124;5.196;2023-10-31T08:33:55;6.32;;;1.95;;
20731;SDS011;10527;52.124;5.196;2023-10-31T08:36:22;5.10;;;1.83;;
20731;SDS011;10527;52.124;5.196;2023-10-31T08:38:50;2.63;;;1.50;;
20731;SDS011;10527;52.124;5.196;2023-10-31T08:41:17;3.30;;;1.40;;
20731;SDS011;10527;52.124;5.196;2023-10-31T08:43:46;5.30;;;2.70;;
20731;SDS011;10527;52.124;5.196;2023-10-31T08:46:14;3.65;;;1.90;;
20731;SDS011;10527;52.124;5.196;2023-10-31T08:48:41;2.95;;;1.73;;
20731;SDS011;10527;52.124;5.196;2023-10-31T08:51:09;3.58;;;1.90;;
20731;SDS011;10527;52.124;5.196;2023-10-31T08:53:36;5.07;;;2.00;;
20731;SDS011;10527;52.124;5.196;2023-10-31T08:56:04;3.90;;;1.85;;
20731;SDS011;10527;52.124;5.196;2023-10-31T08:58:32;4.57;;;2.20;;
20731;SDS011;10527;52.124;5.196;2023-10-31T09:01:00;5.97;;;3.13;;
20731;SDS011;10527;52.124;5.196;2023-10-31T09:03:28;8.00;;;2.95;;
20731;SDS011;10527;52.124;5.196;2023-10-31T09:05:56;5.53;;;2.22;;
20731;SDS011;10527;52.124;5.196;2023-10-31T09:08:23;5.30;;;2.60;;
20731;SDS011;10527;52.124;5.196;2023-10-31T09:10:51;5.85;;;2.40;;
20731;SDS011;10527;52.124;5.196;2023-10-31T09:13:18;5.18;;;2.67;;
20731;SDS011;10527;52.124;5.196;2023-10-31T09:15:46;5.88;;;2.53;;
20731;SDS011;10527;52.124;5.196;2023-10-31T09:18:16;6.70;;;2.83;;
20731;SDS011;10527;52.124;5.196;2023-10-31T09:20:44;8.25;;;2.38;;
20731;SDS011;10527;52.124;5.196;2023-10-31T09:23:11;4.65;;;2.15;;
20731;SDS011;10527;52.124;5.196;2023-10-31T09:25:39;5.47;;;2.60;;
20731;SDS011;10527;52.124;5.196;2023-10-31T09:28:06;4.95;;;2.45;;
20731;SDS011;10527;52.124;5.196;2023-10-31T09:30:33;5.57;;;2.70;;
20731;SDS011;10527;52.124;5.196;2023-10-31T09:33:01;3.78;;;2.30;;
20731;SDS011;10527;52.124;5.196;2023-10-31T09:35:29;3.58;;;2.53;;
20731;SDS011;10527;52.124;5.196;2023-10-31T09:37:56;7.38;;;2.40;;
20731;SDS011;10527;52.124;5.196;2023-10-31T09:40:24;5.80;;;2.85;;
20731;SDS011;10527;52.124;5.196;2023-10-31T09:42:51;8.88;;;3.00;;
20731;SDS011;10527;52.124;5.196;2023-10-31T09:45:18;6.68;;;2.63;;
20731;SDS011;10527;52.124;5.196;2023-10-31T09:47:46;6.00;;;2.58;;
20731;SDS011;10527;52.124;5.196;2023-10-31T09:50:13;4.63;;;2.40;;
20731;SDS011;10527;52.124;5.196;2023-10-31T09:52:41;7.68;;;2.55;;
20731;SDS011;10527;52.124;5.196;2023-10-31T09:55:09;5.45;;;2.13;;
20731;SDS011;10527;52.124;5.196;2023-10-31T09:57:36;6.40;;;2.55;;
20731;SDS011;10527;52.124;5.196;2023-10-31T10:00:04;6.07;;;2.55;;
20731;SDS011;10527;52.124;5.196;2023-10-31T10:02:33;7.85;;;2.10;;
20731;SDS011;10527;52.124;5.196;2023-10-31T10:05:00;7.50;;;2.40;;
20731;SDS011;10527;52.124;5.196;2023-10-31T10:07:29;6.45;;;2.33;;
20731;SDS011;10527;52.124;5.196;2023-10-31T10:09:57;7.05;;;2.63;;
20731;SDS011;10527;52.124;5.196;2023-10-31T10:12:26;5.28;;;2.60;;
20731;SDS011;10527;52.124;5.196;2023-10-31T10:14:54;6.72;;;2.40;;
20731;SDS011;10527;52.124;5.196;2023-10-31T10:17:23;7.32;;;2.10;;
20731;SDS011;10527;52.124;5.196;2023-10-31T10:22:38;7.03;;;2.05;;
20731;SDS011;10527;52.124;5.196;2023-10-31T10:25:06;3.78;;;1.58;;
20731;SDS011;10527;52.124;5.196;2023-10-31T10:27:34;6.00;;;2.38;;
20731;SDS011;10527;52.124;5.196;2023-10-31T10:30:02;7.50;;;2.50;;
20731;SDS011;10527;52.124;5.196;2023-10-31T10:32:30;6.18;;;2.35;;
20731;SDS011;10527;52.124;5.196;2023-10-31T10:34:58;5.90;;;1.95;;
20731;SDS011;10527;52.124;5.196;2023-10-31T10:37:27;4.20;;;2.22;;
20731;SDS011;10527;52.124;5.196;2023-10-31T10:39:57;4.18;;;1.80;;
20731;SDS011;10527;52.124;5.196;2023-10-31T10:42:31;6.35;;;2.28;;
20731;SDS011;10527;52.124;5.196;2023-10-31T10:45:03;6.28;;;2.00;;
20731;SDS011;10527;52.124;5.196;2023-10-31T10:47:31;5.40;;;2.17;;
20731;SDS011;10527;52.124;5.196;2023-10-31T10:50:01;5.60;;;2.20;;
20731;SDS011;10527;52.124;5.196;2023-10-31T10:55:04;5.00;;;2.05;;
20731;SDS011;10527;52.124;5.196;2023-10-31T10:57:45;5.80;;;2.00;;
20731;SDS011;10527;52.124;5.196;2023-10-31T11:00:30;6.72;;;2.03;;
20731;SDS011;10527;52.124;5.196;2023-10-31T11:02:58;3.25;;;2.00;;
20731;SDS011;10527;52.124;5.196;2023-10-31T11:05:27;3.20;;;1.63;;
20731;SDS011;10527;52.124;5.196;2023-10-31T11:07:56;3.25;;;1.80;;
20731;SDS011;10527;52.124;5.196;2023-10-31T11:10:25;3.47;;;1.70;;
20731;SDS011;10527;52.124;5.196;2023-10-31T11:12:55;7.55;;;1.90;;
20731;SDS011;10527;52.124;5.196;2023-10-31T11:15:23;6.38;;;2.15;;
20731;SDS011;10527;52.124;5.196;2023-10-31T11:17:52;6.60;;;1.80;;
20731;SDS011;10527;52.124;5.196;2023-10-31T11:20:21;7.40;;;1.90;;
20731;SDS011;10527;52.124;5.196;2023-10-31T11:22:54;3.33;;;1.40;;
20731;SDS011;10527;52.124;5.196;2023-10-31T11:25:26;2.45;;;1.38;;
20731;SDS011;10527;52.124;5.196;2023-10-31T11:28:11;5.60;;;2.10;;
20731;SDS011;10527;52.124;5.196;2023-10-31T11:30:41;5.75;;;1.65;;
20731;SDS011;10527;52.124;5.196;2023-10-31T11:33:12;6.07;;;1.65;;
20731;SDS011;10527;52.124;5.196;2023-10-31T11:35:41;3.58;;;1.35;;
20731;SDS011;10527;52.124;5.196;2023-10-31T11:38:11;5.82;;;2.03;;
20731;SDS011;10527;52.124;5.196;2023-10-31T11:43:18;6.40;;;2.17;;
20731;SDS011;10527;52.124;5.196;2023-10-31T11:45:46;4.93;;;2.33;;
20731;SDS011;10527;52.124;5.196;2023-10-31T11:48:15;4.57;;;2.10;;
20731;SDS011;10527;52.124;5.196;2023-10-31T11:50:42;7.63;;;2.67;;
20731;SDS011;10527;52.124;5.196;2023-10-31T11:53:11;5.65;;;2.50;;
20731;SDS011;10527;52.124;5.196;2023-10-31T11:55:40;7.47;;;3.17;;
20731;SDS011;10527;52.124;5.196;2023-10-31T11:58:16;4.60;;;2.67;;
20731;SDS011;10527;52.124;5.196;2023-10-31T12:00:48;5.03;;;2.42;;
20731;SDS011;10527;52.124;5.196;2023-10-31T12:03:19;7.18;;;2.65;;
20731;SDS011;10527;52.124;5.196;2023-10-31T12:05:57;5.25;;;3.38;;
20731;SDS011;10527;52.124;5.196;2023-10-31T12:08:28;7.85;;;4.05;;
20731;SDS011;10527;52.124;5.196;2023-10-31T12:13:32;6.30;;;4.82;;
20731;SDS011;10527;52.124;5.196;2023-10-31T12:16:01;7.13;;;5.13;;
20731;SDS011;10527;52.124;5.196;2023-10-31T12:18:29;9.93;;;7.05;;
20731;SDS011;10527;52.124;5.196;2023-10-31T12:20:56;10.00;;;6.40;;
20731;SDS011;10527;52.124;5.196;2023-10-31T12:23:24;7.45;;;6.35;;
20731;SDS011;10527;52.124;5.196;2023-10-31T12:25:52;10.82;;;6.32;;
20731;SDS011;10527;52.124;5.196;2023-10-31T12:28:20;12.52;;;7.97;;
20731;SDS011;10527;52.124;5.196;2023-10-31T12:30:49;14.45;;;8.05;;
20731;SDS011;10527;52.124;5.196;2023-10-31T12:33:21;10.48;;;7.57;;
20731;SDS011;10527;52.124;5.196;2023-10-31T12:35:52;12.10;;;8.50;;
20731;SDS011;10527;52.124;5.196;2023-10-31T12:38:24;14.50;;;8.82;;
20731;SDS011;10527;52.124;5.196;2023-10-31T12:40:52;12.82;;;8.57;;
20731;SDS011;10527;52.124;5.196;2023-10-31T12:43:20;11.13;;;9.18;;
20731;SDS011;10527;52.124;5.196;2023-10-31T12:45:48;14.40;;;9.40;;
20731;SDS011;10527;52.124;5.196;2023-10-31T12:48:16;13.75;;;8.90;;
20731;SDS011;10527;52.124;5.196;2023-10-31T12:50:50;14.55;;;9.98;;
20731;SDS011;10527;52.124;5.196;2023-10-31T12:53:35;17.17;;;9.90;;
20731;SDS011;10527;52.124;5.196;2023-10-31T12:56:03;12.43;;;9.45;;
20731;SDS011;10527;52.124;5.196;2023-10-31T12:58:31;14.18;;;9.27;;
20731;SDS011;10527;52.124;5.196;2023-10-31T13:00:58;13.85;;;10.00;;
20731;SDS011;10527;52.124;5.196;2023-10-31T13:03:26;12.35;;;9.27;;
20731;SDS011;10527;52.124;5.196;2023-10-31T13:05:54;14.90;;;10.30;;
20731;SDS011;10527;52.124;5.196;2023-10-31T13:08:22;30.63;;;9.88;;
20731;SDS011;10527;52.124;5.196;2023-10-31T13:10:50;14.80;;;8.45;;
20731;SDS011;10527;52.124;5.196;2023-10-31T13:13:19;13.48;;;9.32;;
20731;SDS011;10527;52.124;5.196;2023-10-31T13:15:46;14.27;;;10.57;;
20731;SDS011;10527;52.124;5.196;2023-10-31T13:18:14;15.00;;;10.70;;
20731;SDS011;10527;52.124;5.196;2023-10-31T13:20:42;14.13;;;9.38;;
20731;SDS011;10527;52.124;5.196;2023-10-31T13:23:09;12.23;;;9.55;;
20731;SDS011;10527;52.124;5.196;2023-10-31T13:25:39;11.60;;;9.05;;
20731;SDS011;10527;52.124;5.196;2023-10-31T13:28:07;15.73;;;11.20;;
20731;SDS011;10527;52.124;5.196;2023-10-31T13:30:38;12.73;;;10.05;;
20731;SDS011;10527;52.124;5.196;2023-10-31T13:33:07;15.85;;;10.93;;
20731;SDS011;10527;52.124;5.196;2023-10-31T13:35:34;15.93;;;11.48;;
20731;SDS011;10527;52.124;5.196;2023-10-31T13:38:02;15.45;;;11.30;;
20731;SDS011;10527;52.124;5.196;2023-10-31T13:40:30;16.85;;;11.27;;
20731;SDS011;10527;52.124;5.196;2023-10-31T13:42:57;15.43;;;11.90;;
20731;SDS011;10527;52.124;5.196;2023-10-31T13:45:25;17.88;;;12.27;;
20731;SDS011;10527;52.124;5.196;2023-10-31T13:47:52;16.45;;;12.30;;
20731;SDS011;10527;52.124;5.196;2023-10-31T13:50:21;16.38;;;13.45;;
20731;SDS011;10527;52.124;5.196;2023-10-31T13:52:49;16.58;;;13.02;;
20731;SDS011;10527;52.124;5.196;2023-10-31T13:55:17;16.58;;;12.40;;
20731;SDS011;10527;52.124;5.196;2023-10-31T13:57:45;17.08;;;12.65;;
20731;SDS011;10527;52.124;5.196;2023-10-31T14:00:13;15.63;;;12.27;;
20731;SDS011;10527;52.124;5.196;2023-10-31T14:02:41;13.60;;;11.60;;
20731;SDS011;10527;52.124;5.196;2023-10-31T14:05:09;14.13;;;11.13;;
20731;SDS011;10527;52.124;5.196;2023-10-31T14:07:37;13.75;;;11.10;;
20731;SDS011;10527;52.124;5.196;2023-10-31T14:10:04;13.18;;;10.57;;
20731;SDS011;10527;52.124;5.196;2023-10-31T14:12:32;13.82;;;11.05;;
20731;SDS011;10527;52.124;5.196;2023-10-31T14:14:59;15.05;;;11.10;;
20731;SDS011;10527;52.124;5.196;2023-10-31T14:17:27;15.05;;;11.15;;
20731;SDS011;10527;52.124;5.196;2023-10-31T14:19:56;12.20;;;10.20;;
20731;SDS011;10527;52.124;5.196;2023-10-31T14:22:24;12.82;;;10.27;;
20731;SDS011;10527;52.124;5.196;2023-10-31T14:24:51;17.90;;;12.15;;
20731;SDS011;10527;52.124;5.196;2023-10-31T14:27:20;12.27;;;10.40;;
20731;SDS011;10527;52.124;5.196;2023-10-31T14:29:48;11.43;;;10.23;;
20731;SDS011;10527;52.124;5.196;2023-10-31T14:32:15;15.05;;;11.43;;
20731;SDS011;10527;52.124;5.196;2023-10-31T14:34:43;13.48;;;10.98;;
20731;SDS011;10527;52.124;5.196;2023-10-31T14:37:10;13.82;;;11.60;;
20731;SDS011;10527;52.124;5.196;2023-10-31T14:39:39;17.75;;;12.43;;
20731;SDS011;10527;52.124;5.196;2023-10-31T14:42:06;15.13;;;12.00;;
20731;SDS011;10527;52.124;5.196;2023-10-31T14:44:34;16.58;;;14.27;;
20731;SDS011;10527;52.124;5.196;2023-10-31T14:47:01;17.30;;;15.15;;
20731;SDS011;10527;52.124;5.196;2023-10-31T14:49:29;17.15;;;15.35;;
20731;SDS011;10527;52.124;5.196;2023-10-31T14:51:56;17.50;;;15.20;;
20731;SDS011;10527;52.124;5.196;2023-10-31T14:54:24;18.50;;;15.93;;
20731;SDS011;10527;52.124;5.196;2023-10-31T14:56:52;18.00;;;16.10;;
20731;SDS011;10527;52.124;5.196;2023-10-31T14:59:20;19.55;;;15.18;;